Weather at Uşak Airport

Public forecast

Using degrees Celsius for public forecast. Weather courtesy of forecast.io.

Current aviation weather report (METAR) for Uşak Airport

Report is more than 6 hours old.

Retrieved 2022/01/27 13:50 UTC (10 hours ago):

LTBO 271350Z 09006KT 350V130 9999 SCT040 M00/M07 Q1019

Closest aviation forecast (TAF) to Uşak Airport

Forecast is more than 12 hours old.

Closest forecast is Zafer Airport, 40.2 nm (74.4 km) NE. Retrieved 2016/11/23 00:00 UTC (5 years ago):

TAF LTBZ 232240Z 2400/2409 VRB02KT CAVOK